createdAt,value
2023-05-19T00:00:38.979Z,171.57
2023-05-19T00:03:10.100Z,174.70
2023-05-19T00:05:46.815Z,174.82
2023-05-19T00:08:19.951Z,174.60
2023-05-19T00:10:50.040Z,164.20
2023-05-19T00:13:19.727Z,165.02
2023-05-19T00:15:49.703Z,162.40
2023-05-19T00:18:19.402Z,175.68
2023-05-19T00:20:48.899Z,141.98
2023-05-19T00:23:18.187Z,162.85
2023-05-19T00:25:47.666Z,155.80
2023-05-19T00:28:17.306Z,161.75
2023-05-19T00:30:47.072Z,158.20
2023-05-19T00:33:16.325Z,174.68
2023-05-19T00:35:45.747Z,159.07
2023-05-19T00:38:15.062Z,189.98
2023-05-19T00:40:44.940Z,180.82
2023-05-19T00:43:14.587Z,188.23
2023-05-19T00:45:44.460Z,188.45
2023-05-19T00:48:13.729Z,195.95
2023-05-19T00:50:43.549Z,189.35
2023-05-19T00:53:14.374Z,195.35
2023-05-19T00:55:44.537Z,160.07
2023-05-19T00:58:15.542Z,173.55
2023-05-19T01:00:46.711Z,176.40
2023-05-19T01:03:21.484Z,168.25
2023-05-19T01:05:54.760Z,178.68
2023-05-19T01:08:24.682Z,192.32
2023-05-19T01:10:59.052Z,168.90
2023-05-19T01:13:47.328Z,143.15
2023-05-19T01:16:23.580Z,153.88
2023-05-19T01:19:14.222Z,156.05
2023-05-19T01:21:58.447Z,156.80
2023-05-19T01:25:01.680Z,152.57
2023-05-19T01:28:02.803Z,166.15
2023-05-19T01:30:38.621Z,166.25
2023-05-19T01:33:17.823Z,189.45
2023-05-19T01:35:49.113Z,173.10
2023-05-19T01:38:21.877Z,168.45
2023-05-19T01:40:53.046Z,162.88
2023-05-19T01:43:25.608Z,155.27
2023-05-19T01:45:56.542Z,195.23
2023-05-19T01:48:32.112Z,156.23
2023-05-19T01:51:03.809Z,161.63
2023-05-19T01:53:34.047Z,142.82
2023-05-19T01:56:04.598Z,141.85
2023-05-19T01:58:40.006Z,129.80
2023-05-19T02:01:18.566Z,123.53
2023-05-19T02:04:14.629Z,113.57
2023-05-19T02:07:02.890Z,109.70
2023-05-19T02:09:41.778Z,92.25
2023-05-19T02:12:32.784Z,103.43
2023-05-19T02:15:13.171Z,87.93
2023-05-19T02:17:48.869Z,84.75
2023-05-19T02:20:19.329Z,81.97
2023-05-19T02:22:49.237Z,95.38
2023-05-19T02:25:18.776Z,96.35
2023-05-19T02:27:50.227Z,78.03
2023-05-19T02:30:19.858Z,118.43
2023-05-19T02:32:49.430Z,142.70
2023-05-19T02:35:19.063Z,124.95
2023-05-19T02:37:48.528Z,91.55
2023-05-19T02:40:17.805Z,110.65
2023-05-19T02:42:47.396Z,133.02
2023-05-19T02:45:16.792Z,107.20
2023-05-19T02:47:46.685Z,70.45
2023-05-19T02:50:16.089Z,105.22
2023-05-19T02:52:45.561Z,95.55
2023-05-19T02:55:18.261Z,83.07
2023-05-19T02:57:47.674Z,81.43
2023-05-19T03:00:17.493Z,101.38
2023-05-19T03:02:47.416Z,74.10
2023-05-19T03:05:16.997Z,90.00
2023-05-19T03:07:46.806Z,80.20
2023-05-19T03:10:16.349Z,72.03
2023-05-19T03:12:45.617Z,58.08
2023-05-19T03:15:16.185Z,68.38
2023-05-19T03:17:46.097Z,60.28
2023-05-19T03:20:17.002Z,58.60
2023-05-19T03:22:46.685Z,78.82
2023-05-19T03:25:19.174Z,67.85
2023-05-19T03:27:48.780Z,63.20
2023-05-19T03:30:18.286Z,78.63
2023-05-19T03:33:13.808Z,70.55
2023-05-19T03:35:45.517Z,72.53
2023-05-19T03:38:16.475Z,50.80
2023-05-19T03:40:54.789Z,40.03
2023-05-19T03:43:24.517Z,60.38
2023-05-19T03:46:00.808Z,30.60
2023-05-19T03:48:48.990Z,30.95
2023-05-19T03:51:18.681Z,43.05
2023-05-19T03:53:50.086Z,40.43
2023-05-19T03:56:24.192Z,46.30
2023-05-19T03:58:56.685Z,39.42
2023-05-19T04:01:26.212Z,34.95
2023-05-19T04:03:55.697Z,55.03
2023-05-19T04:06:25.468Z,34.75
2023-05-19T04:08:56.350Z,43.35
2023-05-19T04:11:25.859Z,28.83
2023-05-19T04:13:55.050Z,47.92
2023-05-19T04:16:24.614Z,49.78
2023-05-19T04:18:54.009Z,39.42
2023-05-19T04:21:23.625Z,33.40
2023-05-19T04:23:56.675Z,39.65
2023-05-19T04:26:31.945Z,53.10
2023-05-19T04:29:03.166Z,47.05
2023-05-19T04:31:32.854Z,55.30
2023-05-19T04:34:04.624Z,70.70
2023-05-19T04:36:35.073Z,61.40
2023-05-19T04:41:41.535Z,56.70
2023-05-19T04:44:11.305Z,132.90
2023-05-19T04:46:41.052Z,57.85
2023-05-19T04:49:16.487Z,102.85
2023-05-19T04:51:47.304Z,83.15
2023-05-19T04:54:17.019Z,88.10
2023-05-19T04:56:46.789Z,82.47
2023-05-19T04:59:16.984Z,54.67
2023-05-19T05:01:46.598Z,65.85
2023-05-19T05:04:18.338Z,39.40
2023-05-19T05:06:49.144Z,39.53
2023-05-19T05:09:23.261Z,85.97
2023-05-19T05:11:53.248Z,86.97
2023-05-19T05:14:23.142Z,46.35
2023-05-19T05:16:53.142Z,86.13
2023-05-19T05:19:26.030Z,73.63
2023-05-19T05:21:56.991Z,44.97
2023-05-19T05:24:27.273Z,60.47
2023-05-19T05:27:00.997Z,43.25
2023-05-19T05:29:32.390Z,50.75
2023-05-19T05:32:03.566Z,79.05
2023-05-19T05:34:33.779Z,35.40
2023-05-19T05:37:03.041Z,55.80
2023-05-19T05:39:39.068Z,49.15
2023-05-19T05:42:29.543Z,53.80
2023-05-19T05:44:59.578Z,27.48
2023-05-19T05:47:29.567Z,95.70
2023-05-19T05:49:59.748Z,28.50
2023-05-19T05:52:32.039Z,45.80
2023-05-19T05:55:03.226Z,21.65
2023-05-19T05:57:32.929Z,40.85
2023-05-19T06:00:02.536Z,46.47
2023-05-19T06:02:34.187Z,46.77
2023-05-19T06:05:03.827Z,17.90
2023-05-19T06:07:33.631Z,34.85
2023-05-19T06:10:03.798Z,25.85
2023-05-19T06:12:43.479Z,39.08
2023-05-19T06:15:14.355Z,52.13
2023-05-19T06:18:00.658Z,37.15
2023-05-19T06:20:31.210Z,26.63
2023-05-19T06:23:02.919Z,28.05
2023-05-19T06:25:32.856Z,22.25
2023-05-19T06:28:03.329Z,19.75
2023-05-19T06:30:33.105Z,13.82
2023-05-19T06:33:17.839Z,27.88
2023-05-19T06:35:47.418Z,23.67
2023-05-19T06:38:18.764Z,16.35
2023-05-19T06:40:48.561Z,21.57
2023-05-19T06:43:17.863Z,36.22
2023-05-19T06:45:57.060Z,36.63
2023-05-19T06:48:28.022Z,42.35
2023-05-19T06:50:57.820Z,18.08
2023-05-19T06:53:27.820Z,17.70
2023-05-19T06:55:59.869Z,18.75
2023-05-19T06:58:35.386Z,23.27
2023-05-19T07:01:07.684Z,28.27
2023-05-19T07:03:44.516Z,48.72
2023-05-19T07:06:18.753Z,21.50
2023-05-19T07:08:49.291Z,17.00
2023-05-19T07:11:19.950Z,27.23
2023-05-19T07:13:51.067Z,34.22
2023-05-19T07:16:26.772Z,16.25
2023-05-19T07:19:23.752Z,23.13
2023-05-19T07:22:04.948Z,20.23
2023-05-19T07:24:43.875Z,26.42
2023-05-19T07:27:33.816Z,17.63
2023-05-19T07:30:35.653Z,20.60
2023-05-19T07:33:42.022Z,18.23
2023-05-19T07:39:54.760Z,21.92
2023-05-19T07:42:32.386Z,24.13
2023-05-19T07:45:24.918Z,33.45
2023-05-19T07:48:15.429Z,136.50
2023-05-19T07:50:56.167Z,47.17
2023-05-19T07:53:48.648Z,47.33
2023-05-19T07:57:01.507Z,20.52
2023-05-19T07:59:59.444Z,34.50
2023-05-19T08:02:47.430Z,26.23
2023-05-19T08:05:58.901Z,35.13
2023-05-19T08:08:48.246Z,29.27
2023-05-19T08:11:41.502Z,35.63
2023-05-19T08:14:30.274Z,65.07
2023-05-19T08:20:40.272Z,19.60
2023-05-19T08:23:36.361Z,38.13
2023-05-19T08:26:25.773Z,23.27
2023-05-19T08:29:38.062Z,23.23
2023-05-19T08:32:38.163Z,16.23
2023-05-19T08:35:33.211Z,15.82
2023-05-19T08:41:31.341Z,40.80
2023-05-19T08:44:26.387Z,74.78
2023-05-19T08:47:27.340Z,30.50
2023-05-19T08:50:11.570Z,11.82
2023-05-19T08:53:00.222Z,65.47
2023-05-19T08:55:51.548Z,22.92
2023-05-19T08:58:34.090Z,9.85
2023-05-19T09:03:43.378Z,22.15
2023-05-19T09:06:28.476Z,67.47
2023-05-19T09:09:05.467Z,31.92
2023-05-19T09:11:39.948Z,14.20
2023-05-19T09:14:12.525Z,87.13
2023-05-19T09:16:47.013Z,12.05
2023-05-19T09:19:21.238Z,26.88
2023-05-19T09:22:09.119Z,70.35
2023-05-19T09:24:43.877Z,11.15
2023-05-19T09:27:30.349Z,31.23
2023-05-19T09:30:11.394Z,23.15
2023-05-19T09:35:48.594Z,19.80
2023-05-19T09:38:25.570Z,32.17
2023-05-19T09:41:04.403Z,18.27
2023-05-19T09:43:41.962Z,18.60
2023-05-19T09:46:19.812Z,11.18
2023-05-19T09:49:03.888Z,12.25
2023-05-19T09:51:54.467Z,11.40
2023-05-19T09:54:39.096Z,30.13
2023-05-19T09:57:11.639Z,20.63
2023-05-19T09:59:46.630Z,19.67
2023-05-19T10:02:23.750Z,17.77
2023-05-19T10:05:04.371Z,26.55
2023-05-19T10:07:41.216Z,26.08
2023-05-19T10:10:32.426Z,21.10
2023-05-19T10:13:11.049Z,10.25
2023-05-19T10:15:58.223Z,14.32
2023-05-19T10:18:39.987Z,29.08
2023-05-19T10:21:10.783Z,12.23
2023-05-19T10:23:40.461Z,9.50
2023-05-19T10:26:11.358Z,13.55
2023-05-19T10:28:44.840Z,20.67
2023-05-19T10:31:21.650Z,15.48
2023-05-19T12:15:09.736Z,21.02
2023-05-19T12:34:25.124Z,20.15
2023-05-19T12:37:15.469Z,37.63
2023-05-19T13:06:57.427Z,23.13
2023-05-19T13:16:56.229Z,20.95
2023-05-19T14:09:01.877Z,23.90
2023-05-19T15:44:32.340Z,32.75
2023-05-19T16:01:26.441Z,33.95
2023-05-19T16:25:41.763Z,41.42
2023-05-19T17:00:41.489Z,24.73
2023-05-19T18:03:18.995Z,50.20
